sensor_id;sensor_type;location;lat;lon;timestamp;pressure;altitude;pressure_sealevel;temperature;humidity
10176;BME280;18221;38.704;0.152;2024-02-21T00:00:18;100061.44;;;17.40;49.16
10176;BME280;18221;38.704;0.152;2024-02-21T00:02:47;100058.03;;;17.29;49.22
10176;BME280;18221;38.704;0.152;2024-02-21T00:05:15;100059.75;;;17.13;49.23
10176;BME280;18221;38.704;0.152;2024-02-21T00:07:43;100058.69;;;17.06;49.57
10176;BME280;18221;38.704;0.152;2024-02-21T00:10:11;100057.31;;;17.02;49.78
10176;BME280;18221;38.704;0.152;2024-02-21T00:12:39;100045.75;;;17.01;50.31
10176;BME280;18221;38.704;0.152;2024-02-21T00:15:08;100045.81;;;17.09;50.39
10176;BME280;18221;38.704;0.152;2024-02-21T00:17:35;100038.97;;;17.15;50.14
10176;BME280;18221;38.704;0.152;2024-02-21T00:20:06;100046.50;;;17.11;50.26
10176;BME280;18221;38.704;0.152;2024-02-21T00:22:34;100038.44;;;17.11;50.03
10176;BME280;18221;38.704;0.152;2024-02-21T00:25:03;100044.78;;;17.10;49.93
10176;BME280;18221;38.704;0.152;2024-02-21T00:27:31;100030.38;;;17.11;49.58
10176;BME280;18221;38.704;0.152;2024-02-21T00:29:58;100026.91;;;17.19;49.04
10176;BME280;18221;38.704;0.152;2024-02-21T00:32:26;100016.03;;;17.20;48.99
10176;BME280;18221;38.704;0.152;2024-02-21T00:34:54;100018.56;;;17.22;48.46
10176;BME280;18221;38.704;0.152;2024-02-21T00:37:23;100021.19;;;17.14;48.83
10176;BME280;18221;38.704;0.152;2024-02-21T00:39:51;100017.81;;;17.12;48.94
10176;BME280;18221;38.704;0.152;2024-02-21T00:42:19;100007.28;;;17.18;49.00
10176;BME280;18221;38.704;0.152;2024-02-21T00:44:47;100008.38;;;17.08;49.17
10176;BME280;18221;38.704;0.152;2024-02-21T00:47:15;100004.81;;;16.99;49.42
10176;BME280;18221;38.704;0.152;2024-02-21T00:49:43;100004.50;;;17.02;49.65
10176;BME280;18221;38.704;0.152;2024-02-21T01:02:34;99983.34;;;16.82;49.30
10176;BME280;18221;38.704;0.152;2024-02-21T01:05:02;99982.59;;;16.89;49.30
10176;BME280;18221;38.704;0.152;2024-02-21T01:07:30;99981.09;;;16.87;49.51
10176;BME280;18221;38.704;0.152;2024-02-21T01:09:58;99973.84;;;16.87;49.96
10176;BME280;18221;38.704;0.152;2024-02-21T01:12:26;99975.38;;;16.90;50.46
10176;BME280;18221;38.704;0.152;2024-02-21T01:14:54;99978.91;;;16.90;50.51
10176;BME280;18221;38.704;0.152;2024-02-21T01:17:22;99975.06;;;16.93;50.59
10176;BME280;18221;38.704;0.152;2024-02-21T01:19:51;99976.22;;;16.90;50.76
10176;BME280;18221;38.704;0.152;2024-02-21T01:22:19;99975.47;;;16.80;50.93
10176;BME280;18221;38.704;0.152;2024-02-21T01:24:47;99971.09;;;16.79;50.83
10176;BME280;18221;38.704;0.152;2024-02-21T01:27:14;99963.22;;;16.78;50.67
10176;BME280;18221;38.704;0.152;2024-02-21T01:29:42;99964.28;;;16.85;50.76
10176;BME280;18221;38.704;0.152;2024-02-21T01:32:12;99974.38;;;16.91;50.40
10176;BME280;18221;38.704;0.152;2024-02-21T01:34:40;99966.53;;;16.97;49.80
10176;BME280;18221;38.704;0.152;2024-02-21T01:37:12;99961.88;;;16.99;49.70
10176;BME280;18221;38.704;0.152;2024-02-21T01:39:40;99961.28;;;16.88;49.58
10176;BME280;18221;38.704;0.152;2024-02-21T01:42:08;99956.34;;;16.75;49.05
10176;BME280;18221;38.704;0.152;2024-02-21T01:44:36;99954.50;;;16.76;48.49
10176;BME280;18221;38.704;0.152;2024-02-21T01:47:04;99955.34;;;16.76;48.07
10176;BME280;18221;38.704;0.152;2024-02-21T01:49:33;99957.00;;;16.77;47.61
10176;BME280;18221;38.704;0.152;2024-02-21T01:52:02;99961.03;;;16.73;47.38
10176;BME280;18221;38.704;0.152;2024-02-21T01:54:32;99961.69;;;16.75;47.25
10176;BME280;18221;38.704;0.152;2024-02-21T01:57:01;99956.16;;;16.77;47.26
10176;BME280;18221;38.704;0.152;2024-02-21T01:59:29;99955.72;;;16.81;47.16
10176;BME280;18221;38.704;0.152;2024-02-21T02:01:57;99953.53;;;16.85;47.28
10176;BME280;18221;38.704;0.152;2024-02-21T02:04:26;99949.88;;;16.86;47.66
10176;BME280;18221;38.704;0.152;2024-02-21T02:06:55;99950.06;;;16.92;47.69
10176;BME280;18221;38.704;0.152;2024-02-21T02:09:24;99954.41;;;16.85;48.04
10176;BME280;18221;38.704;0.152;2024-02-21T02:11:53;99953.25;;;16.88;48.15
10176;BME280;18221;38.704;0.152;2024-02-21T02:14:21;99943.13;;;16.82;48.10
10176;BME280;18221;38.704;0.152;2024-02-21T02:16:49;99937.94;;;16.80;48.02
10176;BME280;18221;38.704;0.152;2024-02-21T02:19:17;99937.72;;;16.74;47.94
10176;BME280;18221;38.704;0.152;2024-02-21T02:21:50;99940.25;;;16.75;47.59
10176;BME280;18221;38.704;0.152;2024-02-21T02:24:25;99937.13;;;16.62;47.39
10176;BME280;18221;38.704;0.152;2024-02-21T02:26:53;99933.41;;;16.45;47.69
10176;BME280;18221;38.704;0.152;2024-02-21T02:29:20;99934.44;;;16.44;47.61
10176;BME280;18221;38.704;0.152;2024-02-21T02:31:50;99930.75;;;16.45;47.15
10176;BME280;18221;38.704;0.152;2024-02-21T02:34:17;99928.78;;;16.47;47.12
10176;BME280;18221;38.704;0.152;2024-02-21T02:36:45;99942.59;;;16.52;47.09
10176;BME280;18221;38.704;0.152;2024-02-21T02:39:15;99933.53;;;16.53;46.98
10176;BME280;18221;38.704;0.152;2024-02-21T02:41:44;99931.69;;;16.54;46.91
10176;BME280;18221;38.704;0.152;2024-02-21T02:44:12;99926.31;;;16.54;47.09
10176;BME280;18221;38.704;0.152;2024-02-21T02:46:41;99921.41;;;16.49;47.35
10176;BME280;18221;38.704;0.152;2024-02-21T02:49:09;99925.38;;;16.45;47.13
10176;BME280;18221;38.704;0.152;2024-02-21T02:51:37;99907.84;;;16.51;47.15
10176;BME280;18221;38.704;0.152;2024-02-21T02:54:08;99906.47;;;16.47;47.16
10176;BME280;18221;38.704;0.152;2024-02-21T02:56:36;99902.09;;;16.46;47.16
10176;BME280;18221;38.704;0.152;2024-02-21T02:59:05;99907.16;;;16.49;47.39
10176;BME280;18221;38.704;0.152;2024-02-21T03:01:34;99903.63;;;16.48;47.54
10176;BME280;18221;38.704;0.152;2024-02-21T03:04:03;99901.97;;;16.47;47.41
10176;BME280;18221;38.704;0.152;2024-02-21T03:06:32;99904.47;;;16.49;47.67
10176;BME280;18221;38.704;0.152;2024-02-21T03:09:00;99901.78;;;16.49;47.80
10176;BME280;18221;38.704;0.152;2024-02-21T03:11:28;99904.47;;;16.49;48.21
10176;BME280;18221;38.704;0.152;2024-02-21T03:13:56;99891.75;;;16.51;48.40
10176;BME280;18221;38.704;0.152;2024-02-21T03:16:25;99885.13;;;16.55;48.53
10176;BME280;18221;38.704;0.152;2024-02-21T03:18:53;99883.66;;;16.60;48.64
10176;BME280;18221;38.704;0.152;2024-02-21T03:21:21;99884.34;;;16.62;48.49
10176;BME280;18221;38.704;0.152;2024-02-21T03:23:49;99881.84;;;16.69;48.64
10176;BME280;18221;38.704;0.152;2024-02-21T03:26:17;99871.84;;;16.71;48.93
10176;BME280;18221;38.704;0.152;2024-02-21T03:28:44;99864.16;;;16.76;48.84
10176;BME280;18221;38.704;0.152;2024-02-21T03:31:13;99853.94;;;16.80;48.79
10176;BME280;18221;38.704;0.152;2024-02-21T03:33:43;99858.66;;;16.86;48.82
10176;BME280;18221;38.704;0.152;2024-02-21T03:36:14;99854.81;;;16.88;48.78
10176;BME280;18221;38.704;0.152;2024-02-21T03:38:42;99846.09;;;16.86;48.80
10176;BME280;18221;38.704;0.152;2024-02-21T03:41:10;99846.47;;;16.91;48.44
10176;BME280;18221;38.704;0.152;2024-02-21T03:43:38;99841.59;;;16.95;49.00
10176;BME280;18221;38.704;0.152;2024-02-21T03:46:07;99831.72;;;16.95;48.66
10176;BME280;18221;38.704;0.152;2024-02-21T03:48:35;99832.25;;;16.99;48.67
10176;BME280;18221;38.704;0.152;2024-02-21T03:51:08;99828.41;;;17.01;48.54
10176;BME280;18221;38.704;0.152;2024-02-21T03:53:36;99827.75;;;17.07;48.48
10176;BME280;18221;38.704;0.152;2024-02-21T03:56:04;99831.78;;;17.11;48.38
10176;BME280;18221;38.704;0.152;2024-02-21T03:58:35;99834.78;;;17.08;48.65
10176;BME280;18221;38.704;0.152;2024-02-21T04:01:04;99836.50;;;17.09;48.88
10176;BME280;18221;38.704;0.152;2024-02-21T04:03:32;99834.16;;;17.14;49.03
10176;BME280;18221;38.704;0.152;2024-02-21T04:06:00;99836.84;;;17.14;48.94
10176;BME280;18221;38.704;0.152;2024-02-21T04:08:29;99836.22;;;17.20;48.92
10176;BME280;18221;38.704;0.152;2024-02-21T04:10:57;99839.91;;;17.27;48.86
10176;BME280;18221;38.704;0.152;2024-02-21T04:13:25;99833.88;;;17.25;48.77
10176;BME280;18221;38.704;0.152;2024-02-21T04:15:53;99831.19;;;17.25;48.65
10176;BME280;18221;38.704;0.152;2024-02-21T04:18:21;99839.38;;;17.24;48.85
10176;BME280;18221;38.704;0.152;2024-02-21T04:20:53;99844.59;;;17.25;48.85
10176;BME280;18221;38.704;0.152;2024-02-21T04:23:21;99844.25;;;17.28;48.65
10176;BME280;18221;38.704;0.152;2024-02-21T04:25:50;99852.66;;;17.25;48.75
10176;BME280;18221;38.704;0.152;2024-02-21T04:28:18;99849.28;;;17.23;48.83
10176;BME280;18221;38.704;0.152;2024-02-21T04:30:46;99854.31;;;17.26;48.87
10176;BME280;18221;38.704;0.152;2024-02-21T04:33:14;99855.34;;;17.25;48.96
10176;BME280;18221;38.704;0.152;2024-02-21T04:35:42;99861.34;;;17.19;48.86
10176;BME280;18221;38.704;0.152;2024-02-21T04:38:10;99854.16;;;17.20;49.16
10176;BME280;18221;38.704;0.152;2024-02-21T04:40:37;99855.13;;;17.19;49.05
10176;BME280;18221;38.704;0.152;2024-02-21T04:43:07;99857.28;;;17.15;49.17
10176;BME280;18221;38.704;0.152;2024-02-21T04:45:34;99858.97;;;17.16;49.23
10176;BME280;18221;38.704;0.152;2024-02-21T04:48:03;99859.66;;;17.18;49.25
10176;BME280;18221;38.704;0.152;2024-02-21T04:50:31;99863.69;;;17.14;49.41
10176;BME280;18221;38.704;0.152;2024-02-21T04:52:59;99866.03;;;17.17;49.55
10176;BME280;18221;38.704;0.152;2024-02-21T04:55:26;99870.03;;;17.13;49.92
10176;BME280;18221;38.704;0.152;2024-02-21T04:57:54;99869.56;;;17.18;50.09
10176;BME280;18221;38.704;0.152;2024-02-21T05:00:24;99870.88;;;17.14;50.46
10176;BME280;18221;38.704;0.152;2024-02-21T05:02:51;99870.75;;;17.23;50.53
10176;BME280;18221;38.704;0.152;2024-02-21T05:05:19;99872.41;;;17.16;50.67
10176;BME280;18221;38.704;0.152;2024-02-21T05:07:47;99881.78;;;17.12;50.50
10176;BME280;18221;38.704;0.152;2024-02-21T05:10:15;99889.34;;;17.17;50.63
10176;BME280;18221;38.704;0.152;2024-02-21T05:12:43;99887.97;;;17.13;50.87
10176;BME280;18221;38.704;0.152;2024-02-21T05:15:11;99886.34;;;17.20;50.71
10176;BME280;18221;38.704;0.152;2024-02-21T05:17:40;99899.56;;;17.13;50.96
10176;BME280;18221;38.704;0.152;2024-02-21T05:20:10;99905.09;;;17.12;51.03
10176;BME280;18221;38.704;0.152;2024-02-21T05:22:38;99917.03;;;17.17;50.83
10176;BME280;18221;38.704;0.152;2024-02-21T05:25:07;99918.38;;;17.21;50.86
10176;BME280;18221;38.704;0.152;2024-02-21T05:27:35;99932.44;;;17.15;51.06
10176;BME280;18221;38.704;0.152;2024-02-21T05:30:06;99941.19;;;17.17;50.95
10176;BME280;18221;38.704;0.152;2024-02-21T05:32:34;99942.50;;;17.13;51.20
10176;BME280;18221;38.704;0.152;2024-02-21T05:35:04;99945.41;;;17.20;51.21
10176;BME280;18221;38.704;0.152;2024-02-21T05:37:31;99946.25;;;17.28;51.13
10176;BME280;18221;38.704;0.152;2024-02-21T05:39:59;99945.28;;;17.29;51.19
10176;BME280;18221;38.704;0.152;2024-02-21T05:42:27;99943.09;;;17.25;51.05
10176;BME280;18221;38.704;0.152;2024-02-21T05:44:55;99936.03;;;17.24;51.15
10176;BME280;18221;38.704;0.152;2024-02-21T05:47:23;99938.69;;;17.24;51.10
10176;BME280;18221;38.704;0.152;2024-02-21T05:49:50;99937.03;;;17.23;50.98
10176;BME280;18221;38.704;0.152;2024-02-21T05:52:22;99932.03;;;17.28;51.02
10176;BME280;18221;38.704;0.152;2024-02-21T05:54:49;99926.44;;;17.21;51.03
10176;BME280;18221;38.704;0.152;2024-02-21T05:57:18;99929.97;;;17.22;50.99
10176;BME280;18221;38.704;0.152;2024-02-21T05:59:45;99923.09;;;17.19;51.03
10176;BME280;18221;38.704;0.152;2024-02-21T06:02:13;99922.09;;;17.20;50.89
10176;BME280;18221;38.704;0.152;2024-02-21T06:04:41;99921.75;;;17.23;50.89
10176;BME280;18221;38.704;0.152;2024-02-21T06:07:10;99918.38;;;17.21;50.59
10176;BME280;18221;38.704;0.152;2024-02-21T06:09:39;99921.25;;;17.20;50.60
10176;BME280;18221;38.704;0.152;2024-02-21T06:12:08;99917.03;;;17.17;50.28
10176;BME280;18221;38.704;0.152;2024-02-21T06:14:35;99914.66;;;17.14;50.24
10176;BME280;18221;38.704;0.152;2024-02-21T06:17:04;99911.31;;;17.12;50.33
10176;BME280;18221;38.704;0.152;2024-02-21T06:19:31;99917.13;;;17.08;50.54
10176;BME280;18221;38.704;0.152;2024-02-21T06:21:59;99923.88;;;17.12;50.31
10176;BME280;18221;38.704;0.152;2024-02-21T06:24:27;99920.88;;;17.15;50.31
10176;BME280;18221;38.704;0.152;2024-02-21T06:26:56;99920.22;;;17.21;50.29
10176;BME280;18221;38.704;0.152;2024-02-21T06:29:24;99923.44;;;17.24;50.18
10176;BME280;18221;38.704;0.152;2024-02-21T06:31:52;99911.22;;;17.30;50.07
10176;BME280;18221;38.704;0.152;2024-02-21T06:34:20;99912.75;;;17.33;49.99
10176;BME280;18221;38.704;0.152;2024-02-21T06:36:47;99903.72;;;17.34;49.64
10176;BME280;18221;38.704;0.152;2024-02-21T06:39:15;99902.84;;;17.33;50.04
10176;BME280;18221;38.704;0.152;2024-02-21T06:41:43;99903.00;;;17.32;49.50
10176;BME280;18221;38.704;0.152;2024-02-21T06:44:12;99904.88;;;17.31;49.84
10176;BME280;18221;38.704;0.152;2024-02-21T06:46:40;99886.56;;;17.35;49.59
10176;BME280;18221;38.704;0.152;2024-02-21T06:49:08;99887.22;;;17.28;49.72
10176;BME280;18221;38.704;0.152;2024-02-21T06:51:42;99884.53;;;17.28;49.78
10176;BME280;18221;38.704;0.152;2024-02-21T06:54:10;99886.22;;;17.29;49.95
10176;BME280;18221;38.704;0.152;2024-02-21T06:56:39;99888.63;;;17.41;49.62
10176;BME280;18221;38.704;0.152;2024-02-21T06:59:07;99886.75;;;17.33;49.80
10176;BME280;18221;38.704;0.152;2024-02-21T07:01:37;99887.59;;;17.42;49.76
10176;BME280;18221;38.704;0.152;2024-02-21T07:04:05;99888.59;;;17.33;49.92
10176;BME280;18221;38.704;0.152;2024-02-21T07:06:33;99892.13;;;17.33;50.05
10176;BME280;18221;38.704;0.152;2024-02-21T07:09:01;99892.06;;;17.25;50.14
10176;BME280;18221;38.704;0.152;2024-02-21T07:11:29;99892.56;;;17.28;50.12
10176;BME280;18221;38.704;0.152;2024-02-21T07:13:56;99898.13;;;17.27;49.90
10176;BME280;18221;38.704;0.152;2024-02-21T07:16:24;99906.81;;;17.21;50.10
10176;BME280;18221;38.704;0.152;2024-02-21T07:18:55;99910.28;;;17.13;50.18
10176;BME280;18221;38.704;0.152;2024-02-21T07:21:22;99912.34;;;17.19;50.12
10176;BME280;18221;38.704;0.152;2024-02-21T07:23:50;99922.59;;;17.24;50.25
10176;BME280;18221;38.704;0.152;2024-02-21T07:26:18;99917.50;;;17.13;50.42
10176;BME280;18221;38.704;0.152;2024-02-21T07:28:46;99925.41;;;17.14;50.54
10176;BME280;18221;38.704;0.152;2024-02-21T07:31:14;99919.75;;;17.00;50.92
10176;BME280;18221;38.704;0.152;2024-02-21T07:33:42;99921.03;;;17.13;50.72
10176;BME280;18221;38.704;0.152;2024-02-21T07:36:11;99927.88;;;17.08;50.83
10176;BME280;18221;38.704;0.152;2024-02-21T07:38:39;99932.25;;;17.09;50.89
10176;BME280;18221;38.704;0.152;2024-02-21T07:41:07;99931.03;;;17.03;51.19
10176;BME280;18221;38.704;0.152;2024-02-21T07:43:34;99945.53;;;17.18;50.90
10176;BME280;18221;38.704;0.152;2024-02-21T07:46:02;99946.25;;;17.20;50.83
10176;BME280;18221;38.704;0.152;2024-02-21T07:48:30;99943.19;;;17.15;50.95
10176;BME280;18221;38.704;0.152;2024-02-21T07:50:58;99937.53;;;17.26;50.92
10176;BME280;18221;38.704;0.152;2024-02-21T07:53:28;99935.75;;;17.35;50.53
10176;BME280;18221;38.704;0.152;2024-02-21T07:55:58;99933.09;;;17.43;50.50
10176;BME280;18221;38.704;0.152;2024-02-21T07:58:27;99935.63;;;17.45;50.29
10176;BME280;18221;38.704;0.152;2024-02-21T08:00:55;99933.56;;;17.31;50.45
10176;BME280;18221;38.704;0.152;2024-02-21T08:03:22;99919.63;;;17.35;50.45
10176;BME280;18221;38.704;0.152;2024-02-21T08:05:51;99922.03;;;17.46;50.31
10176;BME280;18221;38.704;0.152;2024-02-21T08:08:19;99913.72;;;17.57;50.15
10176;BME280;18221;38.704;0.152;2024-02-21T08:10:50;99913.22;;;17.54;49.90
10176;BME280;18221;38.704;0.152;2024-02-21T08:13:17;99920.25;;;17.55;49.94
10176;BME280;18221;38.704;0.152;2024-02-21T08:15:45;99925.59;;;17.21;50.24
10176;BME280;18221;38.704;0.152;2024-02-21T08:18:13;99927.16;;;17.32;50.24
10176;BME280;18221;38.704;0.152;2024-02-21T08:20:41;99935.75;;;17.35;50.31
10176;BME280;18221;38.704;0.152;2024-02-21T08:23:08;99934.31;;;17.49;50.42
10176;BME280;18221;38.704;0.152;2024-02-21T08:25:36;99940.00;;;17.46;50.26
10176;BME280;18221;38.704;0.152;2024-02-21T08:28:06;99940.34;;;17.51;50.24
10176;BME280;18221;38.704;0.152;2024-02-21T08:30:34;99946.50;;;17.35;50.15
10176;BME280;18221;38.704;0.152;2024-02-21T08:33:02;99946.16;;;17.38;50.19
10176;BME280;18221;38.704;0.152;2024-02-21T08:35:30;99948.59;;;17.23;50.50
10176;BME280;18221;38.704;0.152;2024-02-21T08:37:58;99948.69;;;17.40;50.07
10176;BME280;18221;38.704;0.152;2024-02-21T08:40:26;99946.88;;;17.48;49.85
10176;BME280;18221;38.704;0.152;2024-02-21T08:42:53;99943.53;;;17.46;50.06
10176;BME280;18221;38.704;0.152;2024-02-21T08:45:23;99944.69;;;17.44;50.18
10176;BME280;18221;38.704;0.152;2024-02-21T08:47:50;99944.03;;;17.50;50.19
10176;BME280;18221;38.704;0.152;2024-02-21T08:50:18;99947.41;;;17.52;50.29
10176;BME280;18221;38.704;0.152;2024-02-21T08:52:46;99948.47;;;17.59;50.43
10176;BME280;18221;38.704;0.152;2024-02-21T08:55:14;99945.78;;;17.59;50.24
10176;BME280;18221;38.704;0.152;2024-02-21T08:57:42;99947.84;;;17.65;49.84
10176;BME280;18221;38.704;0.152;2024-02-21T09:00:11;99952.03;;;17.42;49.75
10176;BME280;18221;38.704;0.152;2024-02-21T09:02:42;99950.50;;;17.57;49.75
10176;BME280;18221;38.704;0.152;2024-02-21T09:05:10;99951.25;;;17.49;49.74
10176;BME280;18221;38.704;0.152;2024-02-21T09:07:38;99943.84;;;17.43;50.17
10176;BME280;18221;38.704;0.152;2024-02-21T09:10:07;99936.34;;;17.55;49.95
10176;BME280;18221;38.704;0.152;2024-02-21T09:12:35;99949.56;;;17.48;49.86
10176;BME280;18221;38.704;0.152;2024-02-21T09:15:04;99955.13;;;17.47;49.95
10176;BME280;18221;38.704;0.152;2024-02-21T09:17:32;99950.81;;;17.54;49.64
10176;BME280;18221;38.704;0.152;2024-02-21T09:20:01;99950.34;;;17.66;49.92
10176;BME280;18221;38.704;0.152;2024-02-21T09:22:29;99950.34;;;17.66;49.59
10176;BME280;18221;38.704;0.152;2024-02-21T09:24:57;99947.31;;;17.61;49.27
10176;BME280;18221;38.704;0.152;2024-02-21T09:27:25;99947.16;;;17.71;49.18
10176;BME280;18221;38.704;0.152;2024-02-21T09:29:53;99948.38;;;17.76;49.06
10176;BME280;18221;38.704;0.152;2024-02-21T09:32:21;99942.16;;;17.76;48.74
10176;BME280;18221;38.704;0.152;2024-02-21T09:34:49;99940.31;;;17.76;48.29
10176;BME280;18221;38.704;0.152;2024-02-21T09:37:18;99929.72;;;17.67;48.47
10176;BME280;18221;38.704;0.152;2024-02-21T09:39:46;99932.50;;;17.57;48.77
10176;BME280;18221;38.704;0.152;2024-02-21T09:42:19;99922.50;;;17.75;48.60
10176;BME280;18221;38.704;0.152;2024-02-21T09:44:48;99925.69;;;17.71;48.37
10176;BME280;18221;38.704;0.152;2024-02-21T09:47:22;99928.16;;;17.56;49.06
10176;BME280;18221;38.704;0.152;2024-02-21T09:49:51;99916.06;;;17.60;49.23
10176;BME280;18221;38.704;0.152;2024-02-21T09:52:21;99915.44;;;17.66;49.08
10176;BME280;18221;38.704;0.152;2024-02-21T09:54:50;99915.22;;;17.60;48.61
10176;BME280;18221;38.704;0.152;2024-02-21T09:57:20;99910.53;;;17.54;48.56
10176;BME280;18221;38.704;0.152;2024-02-21T09:59:51;99912.03;;;17.56;48.64
10176;BME280;18221;38.704;0.152;2024-02-21T10:02:20;99904.38;;;17.36;49.15
10176;BME280;18221;38.704;0.152;2024-02-21T10:04:48;99912.66;;;17.50;48.99
10176;BME280;18221;38.704;0.152;2024-02-21T10:07:16;99918.94;;;17.59;49.03
10176;BME280;18221;38.704;0.152;2024-02-21T10:10:01;99925.53;;;17.39;49.32
10176;BME280;18221;38.704;0.152;2024-02-21T10:12:29;99929.44;;;17.18;49.91
10176;BME280;18221;38.704;0.152;2024-02-21T10:15:02;99929.84;;;17.32;49.86
10176;BME280;18221;38.704;0.152;2024-02-21T10:17:31;99927.88;;;17.42;49.54
10176;BME280;18221;38.704;0.152;2024-02-21T10:20:07;99909.44;;;17.39;49.83
10176;BME280;18221;38.704;0.152;2024-02-21T10:22:38;99906.44;;;17.50;49.67
10176;BME280;18221;38.704;0.152;2024-02-21T10:25:12;99909.19;;;17.58;49.60
10176;BME280;18221;38.704;0.152;2024-02-21T10:27:40;99908.03;;;17.68;49.57
10176;BME280;18221;38.704;0.152;2024-02-21T10:30:14;99900.88;;;17.85;49.46
10176;BME280;18221;38.704;0.152;2024-02-21T10:32:50;99904.28;;;18.03;48.64
10176;BME280;18221;38.704;0.152;2024-02-21T10:35:27;99902.25;;;18.05;48.42
10176;BME280;18221;38.704;0.152;2024-02-21T10:37:57;99914.72;;;18.14;47.94
10176;BME280;18221;38.704;0.152;2024-02-21T10:40:28;99914.84;;;18.05;47.88
10176;BME280;18221;38.704;0.152;2024-02-21T10:42:58;99912.00;;;18.06;47.99
10176;BME280;18221;38.704;0.152;2024-02-21T10:45:31;99917.25;;;18.24;47.82
10176;BME280;18221;38.704;0.152;2024-02-21T10:48:08;99912.38;;;18.19;47.48
10176;BME280;18221;38.704;0.152;2024-02-21T10:50:55;99916.03;;;18.10;47.60
10176;BME280;18221;38.704;0.152;2024-02-21T10:53:34;99915.06;;;18.27;47.31
10176;BME280;18221;38.704;0.152;2024-02-21T10:56:16;99909.50;;;18.13;47.72
10176;BME280;18221;38.704;0.152;2024-02-21T10:58:49;99915.19;;;18.10;47.60
10176;BME280;18221;38.704;0.152;2024-02-21T11:01:19;99912.38;;;18.19;47.31
10176;BME280;18221;38.704;0.152;2024-02-21T11:03:49;99899.59;;;18.29;46.95
10176;BME280;18221;38.704;0.152;2024-02-21T11:06:19;99888.84;;;18.21;46.83
10176;BME280;18221;38.704;0.152;2024-02-21T11:08:48;99894.22;;;18.21;46.58
10176;BME280;18221;38.704;0.152;2024-02-21T11:11:28;99884.78;;;18.25;46.58
10176;BME280;18221;38.704;0.152;2024-02-21T11:14:05;99883.63;;;18.36;46.66
10176;BME280;18221;38.704;0.152;2024-02-21T11:16:38;99886.19;;;18.54;46.55
10176;BME280;18221;38.704;0.152;2024-02-21T11:19:08;99883.00;;;18.58;46.09
10176;BME280;18221;38.704;0.152;2024-02-21T11:21:38;99878.94;;;18.70;45.95
10176;BME280;18221;38.704;0.152;2024-02-21T11:24:08;99884.59;;;18.91;45.58
10176;BME280;18221;38.704;0.152;2024-02-21T11:26:39;99885.44;;;18.92;44.85
10176;BME280;18221;38.704;0.152;2024-02-21T11:29:08;99877.28;;;18.61;44.77
10176;BME280;18221;38.704;0.152;2024-02-21T11:31:40;99875.06;;;18.48;44.58
10176;BME280;18221;38.704;0.152;2024-02-21T11:34:12;99872.38;;;18.48;45.00
10176;BME280;18221;38.704;0.152;2024-02-21T11:36:50;99866.66;;;18.43;45.11
10176;BME280;18221;38.704;0.152;2024-02-21T11:39:23;99860.28;;;18.69;45.44
10176;BME280;18221;38.704;0.152;2024-02-21T11:42:04;99857.06;;;18.65;45.77
10176;BME280;18221;38.704;0.152;2024-02-21T11:44:35;99854.69;;;18.86;45.24
10176;BME280;18221;38.704;0.152;2024-02-21T11:47:04;99856.50;;;18.94;45.00
10176;BME280;18221;38.704;0.152;2024-02-21T11:49:38;99858.19;;;19.03;45.09
10176;BME280;18221;38.704;0.152;2024-02-21T11:52:06;99846.44;;;18.80;45.60
10176;BME280;18221;38.704;0.152;2024-02-21T11:54:34;99845.41;;;18.97;45.45
10176;BME280;18221;38.704;0.152;2024-02-21T11:57:04;99833.84;;;18.80;45.80
10176;BME280;18221;38.704;0.152;2024-02-21T11:59:32;99837.00;;;18.92;45.67
10176;BME280;18221;38.704;0.152;2024-02-21T12:02:01;99823.47;;;19.16;45.28
10176;BME280;18221;38.704;0.152;2024-02-21T12:04:30;99819.94;;;19.16;45.49
10176;BME280;18221;38.704;0.152;2024-02-21T12:06:58;99808.72;;;18.96;45.88
10176;BME280;18221;38.704;0.152;2024-02-21T12:09:26;99809.19;;;19.07;45.46
10176;BME280;18221;38.704;0.152;2024-02-21T12:11:59;99798.13;;;19.33;45.29
10176;BME280;18221;38.704;0.152;2024-02-21T12:14:30;99797.47;;;19.39;44.99
10176;BME280;18221;38.704;0.152;2024-02-21T12:16:58;99797.22;;;19.49;45.23
10176;BME280;18221;38.704;0.152;2024-02-21T12:19:29;99793.53;;;19.50;44.70
10176;BME280;18221;38.704;0.152;2024-02-21T12:21:59;99787.66;;;19.46;44.44
10176;BME280;18221;38.704;0.152;2024-02-21T12:24:28;99798.94;;;19.50;44.47
10176;BME280;18221;38.704;0.152;2024-02-21T12:26:57;99784.38;;;19.59;44.56
10176;BME280;18221;38.704;0.152;2024-02-21T12:29:27;99780.47;;;19.61;44.45
10176;BME280;18221;38.704;0.152;2024-02-21T12:31:56;99777.06;;;19.67;44.05
10176;BME280;18221;38.704;0.152;2024-02-21T12:34:24;99771.13;;;19.49;44.02
10176;BME280;18221;38.704;0.152;2024-02-21T12:36:53;99767.41;;;19.20;44.71
10176;BME280;18221;38.704;0.152;2024-02-21T12:39:21;99767.66;;;19.02;45.33
10176;BME280;18221;38.704;0.152;2024-02-21T12:41:50;99758.28;;;19.29;45.04
10176;BME280;18221;38.704;0.152;2024-02-21T12:44:18;99749.28;;;19.14;45.35
10176;BME280;18221;38.704;0.152;2024-02-21T12:46:48;99740.81;;;19.17;45.55
10176;BME280;18221;38.704;0.152;2024-02-21T12:49:18;99745.50;;;19.23;45.59
10176;BME280;18221;38.704;0.152;2024-02-21T12:51:46;99747.28;;;19.38;45.33
10176;BME280;18221;38.704;0.152;2024-02-21T12:54:14;99735.63;;;19.15;45.85
10176;BME280;18221;38.704;0.152;2024-02-21T12:56:42;99725.03;;;19.44;45.67
10176;BME280;18221;38.704;0.152;2024-02-21T12:59:10;99720.25;;;19.54;45.16
10176;BME280;18221;38.704;0.152;2024-02-21T13:01:38;99722.88;;;19.40;45.17
10176;BME280;18221;38.704;0.152;2024-02-21T13:04:07;99712.47;;;19.59;44.61
10176;BME280;18221;38.704;0.152;2024-02-21T13:06:35;99702.28;;;19.69;44.21
10176;BME280;18221;38.704;0.152;2024-02-21T13:09:03;99692.09;;;19.80;44.20
10176;BME280;18221;38.704;0.152;2024-02-21T13:11:34;99683.69;;;19.60;44.67
10176;BME280;18221;38.704;0.152;2024-02-21T13:14:02;99697.38;;;19.73;44.55
10176;BME280;18221;38.704;0.152;2024-02-21T13:16:32;99676.47;;;19.75;44.98
10176;BME280;18221;38.704;0.152;2024-02-21T13:19:07;99669.28;;;19.67;45.25